Omaha, Nebraska
Current Conditions -  °F | °C
As of 2:52 AM on Monday 22 Dec 2014 (Local Time) from KOMA Reporting Station
Light Rain Light Rain  
Wind Chill: 35°   Ceiling: 600
Heat Index: 43°   Visibility: 4mi
Dew Point: 42°   Wind: 18mph
Humidity: 97%   Direction: 160°SSE
Pressure: 29.6"   Gusts: NA
Location:  41.26°N, 95.94°W
Report Text: KOMA 220852Z 16016KT 4SM -RA BR OVC006 06/06 A2960 RMK AO2 DZE25RAB25 SLP029 P0001 60001 T00610056 56016
Loading
Personal Weather Stations






























Interactive Weather Map New forecast layout! Learn more

10-Day Weather Forecast

Advertisements
Track Severe Weather on mobile